createdAt,value
2023-04-18T00:00:07.740Z,4.45
2023-04-18T00:02:39.868Z,3.65
2023-04-18T00:05:07.797Z,4.82
2023-04-18T00:07:35.558Z,4.82
2023-04-18T00:10:04.130Z,5.60
2023-04-18T00:12:32.001Z,5.10
2023-04-18T00:14:58.859Z,5.20
2023-04-18T00:17:28.464Z,4.10
2023-04-18T00:19:58.331Z,4.05
2023-04-18T00:22:25.896Z,5.47
2023-04-18T00:24:52.887Z,5.82
2023-04-18T00:27:20.665Z,5.90
2023-04-18T00:29:48.028Z,4.95
2023-04-18T00:32:16.766Z,4.68
2023-04-18T00:34:43.587Z,4.63
2023-04-18T00:37:13.015Z,5.30
2023-04-18T00:39:42.132Z,5.33
2023-04-18T00:42:09.020Z,5.45
2023-04-18T00:44:35.890Z,3.95
2023-04-18T00:47:02.801Z,4.03
2023-04-18T00:49:29.807Z,5.43
2023-04-18T00:51:57.064Z,4.05
2023-04-18T00:54:24.654Z,6.82
2023-04-18T00:56:54.651Z,4.57
2023-04-18T00:59:22.413Z,4.20
2023-04-18T01:01:49.297Z,5.25
2023-04-18T01:04:16.784Z,4.15
2023-04-18T01:06:45.641Z,6.35
2023-04-18T01:09:14.083Z,4.55
2023-04-18T01:11:40.892Z,5.32
2023-04-18T01:14:09.247Z,5.70
2023-04-18T01:16:37.214Z,4.72
2023-04-18T01:19:05.860Z,5.35
2023-04-18T01:21:37.545Z,4.75
2023-04-18T01:24:08.372Z,4.95
2023-04-18T01:26:35.256Z,3.50
2023-04-18T01:29:05.187Z,4.15
2023-04-18T01:31:39.750Z,5.78
2023-04-18T01:34:07.707Z,4.57
2023-04-18T01:36:36.060Z,4.55
2023-04-18T01:39:03.073Z,5.75
2023-04-18T01:41:32.733Z,7.60
2023-04-18T01:44:00.342Z,5.57
2023-04-18T01:46:27.866Z,6.15
2023-04-18T01:48:55.288Z,6.10
2023-04-18T01:51:22.210Z,6.55
2023-04-18T01:53:49.362Z,7.28
2023-04-18T01:56:16.087Z,7.90
2023-04-18T01:58:42.961Z,7.75
2023-04-18T02:01:09.831Z,5.63
2023-04-18T02:03:38.807Z,7.20
2023-04-18T02:06:06.597Z,8.15
2023-04-18T02:08:35.947Z,8.95
2023-04-18T02:11:05.183Z,7.18
2023-04-18T02:13:32.173Z,6.20
2023-04-18T02:15:59.030Z,8.73
2023-04-18T02:18:27.212Z,7.82
2023-04-18T02:20:54.162Z,8.13
2023-04-18T02:23:22.430Z,7.60
2023-04-18T02:25:49.486Z,8.73
2023-04-18T02:28:17.682Z,8.13
2023-04-18T02:30:44.787Z,6.80
2023-04-18T02:33:11.902Z,7.50
2023-04-18T02:35:39.912Z,7.65
2023-04-18T02:38:07.134Z,7.72
2023-04-18T02:40:33.859Z,6.80
2023-04-18T02:43:02.146Z,10.27
2023-04-18T02:45:29.432Z,8.27
2023-04-18T02:47:59.147Z,8.60
2023-04-18T02:50:27.158Z,7.40
2023-04-18T02:52:56.134Z,8.85
2023-04-18T02:55:28.160Z,7.53
2023-04-18T02:57:58.597Z,7.65
2023-04-18T03:00:43.383Z,7.75
2023-04-18T03:03:36.650Z,7.93
2023-04-18T03:06:23.757Z,10.02
2023-04-18T03:08:51.854Z,8.98
2023-04-18T03:11:18.837Z,10.00
2023-04-18T03:13:46.094Z,9.43
2023-04-18T03:16:14.324Z,10.27
2023-04-18T03:18:42.335Z,8.05
2023-04-18T03:21:09.230Z,9.73
2023-04-18T03:23:36.795Z,9.45
2023-04-18T03:26:07.131Z,10.48
2023-04-18T03:31:03.248Z,8.75
2023-04-18T03:33:32.612Z,10.55
2023-04-18T03:36:07.657Z,9.63
2023-04-18T03:38:34.781Z,7.50
2023-04-18T03:41:02.941Z,7.10
2023-04-18T03:46:00.963Z,8.20
2023-04-18T03:48:29.126Z,10.02
2023-04-18T03:51:00.081Z,8.15
2023-04-18T03:53:27.003Z,6.40
2023-04-18T03:55:56.420Z,6.68
2023-04-18T03:58:30.365Z,5.45
2023-04-18T04:00:57.189Z,7.45
2023-04-18T04:03:24.018Z,7.72
2023-04-18T04:05:51.103Z,7.03
2023-04-18T04:08:17.962Z,7.63
2023-04-18T04:10:45.582Z,7.18
2023-04-18T04:13:12.533Z,9.48
2023-04-18T04:15:41.108Z,5.22
2023-04-18T04:18:10.260Z,4.97
2023-04-18T04:20:40.614Z,5.75
2023-04-18T04:23:12.749Z,7.07
2023-04-18T04:25:40.852Z,7.82
2023-04-18T04:28:17.530Z,6.50
2023-04-18T04:30:53.903Z,7.07
2023-04-18T04:33:25.132Z,5.93
2023-04-18T04:35:55.528Z,6.88
2023-04-18T04:38:25.593Z,6.13
2023-04-18T04:40:54.056Z,5.20
2023-04-18T04:43:21.704Z,6.25
2023-04-18T04:45:49.662Z,6.38
2023-04-18T04:48:16.859Z,7.18
2023-04-18T04:50:52.398Z,5.88
2023-04-18T04:53:19.555Z,5.95
2023-04-18T04:55:46.693Z,6.03
2023-04-18T04:58:13.809Z,5.95
2023-04-18T05:01:03.263Z,6.20
2023-04-18T05:03:32.069Z,6.72
2023-04-18T05:05:59.677Z,7.97
2023-04-18T05:08:26.864Z,5.53
2023-04-18T05:10:53.626Z,8.25
2023-04-18T05:13:20.557Z,9.02
2023-04-18T05:15:47.475Z,7.47
2023-04-18T05:18:14.456Z,5.80
2023-04-18T05:20:41.257Z,5.93
2023-04-18T05:23:08.076Z,6.45
2023-04-18T05:25:34.852Z,6.65
2023-04-18T05:28:04.514Z,7.35
2023-04-18T05:30:31.407Z,9.88
2023-04-18T05:32:58.316Z,8.00
2023-04-18T05:35:25.260Z,6.88
2023-04-18T05:37:52.167Z,6.78
2023-04-18T05:40:18.986Z,5.50
2023-04-18T05:42:45.768Z,6.82
2023-04-18T05:45:12.730Z,8.15
2023-04-18T05:47:39.480Z,6.10
2023-04-18T05:50:07.404Z,7.13
2023-04-18T05:52:34.394Z,7.55
2023-04-18T05:55:01.289Z,8.98
2023-04-18T05:57:28.078Z,7.55
2023-04-18T05:59:54.899Z,8.70
2023-04-18T06:02:22.316Z,6.45
2023-04-18T06:04:50.022Z,9.43
2023-04-18T06:07:16.905Z,9.80
2023-04-18T06:09:43.783Z,11.23
2023-04-18T06:12:10.862Z,10.23
2023-04-18T06:14:37.685Z,9.30
2023-04-18T06:17:04.542Z,9.82
2023-04-18T06:19:31.479Z,8.48
2023-04-18T06:21:58.291Z,10.48
2023-04-18T06:24:25.289Z,10.05
2023-04-18T06:26:52.281Z,10.10
2023-04-18T06:29:19.150Z,10.98
2023-04-18T06:31:46.788Z,10.63
2023-04-18T06:34:14.163Z,9.73
2023-04-18T06:36:41.109Z,8.27
2023-04-18T06:39:08.165Z,7.72
2023-04-18T06:41:35.063Z,10.43
2023-04-18T06:44:03.413Z,10.98
2023-04-18T06:46:31.696Z,12.35
2023-04-18T06:48:58.820Z,12.02
2023-04-18T06:51:25.618Z,15.70
2023-04-18T06:53:55.784Z,15.45
2023-04-18T06:56:23.024Z,13.83
2023-04-18T06:58:50.039Z,14.02
2023-04-18T07:01:16.945Z,12.80
2023-04-18T07:03:43.888Z,11.95
2023-04-18T07:06:11.108Z,11.60
2023-04-18T07:08:38.373Z,9.95
2023-04-18T07:11:06.745Z,9.68
2023-04-18T07:13:33.634Z,13.35
2023-04-18T07:16:01.685Z,12.02
2023-04-18T07:18:37.433Z,13.18
2023-04-18T07:21:07.871Z,11.80
2023-04-18T07:23:35.674Z,13.30
2023-04-18T07:26:03.256Z,10.63
2023-04-18T07:28:31.222Z,10.45
2023-04-18T07:30:58.395Z,8.15
2023-04-18T07:33:25.326Z,8.00
2023-04-18T07:35:53.215Z,12.07
2023-04-18T07:38:20.412Z,10.68
2023-04-18T07:40:47.218Z,9.98
2023-04-18T07:43:13.997Z,10.68
2023-04-18T07:45:43.384Z,10.27
2023-04-18T07:48:11.403Z,10.70
2023-04-18T07:50:38.355Z,9.57
2023-04-18T07:53:05.259Z,9.02
2023-04-18T07:55:32.038Z,8.68
2023-04-18T07:57:58.962Z,8.57
2023-04-18T08:00:26.384Z,9.75
2023-04-18T08:02:53.407Z,10.43
2023-04-18T08:05:20.547Z,10.18
2023-04-18T08:07:47.407Z,9.30
2023-04-18T08:10:14.158Z,10.82
2023-04-18T08:12:41.235Z,11.27
2023-04-18T08:15:08.802Z,9.05
2023-04-18T08:17:36.127Z,7.93
2023-04-18T08:20:07.328Z,8.13
2023-04-18T08:22:34.266Z,9.25
2023-04-18T08:25:05.451Z,7.03
2023-04-18T08:27:32.910Z,9.57
2023-04-18T08:30:00.789Z,8.40
2023-04-18T08:32:27.818Z,7.75
2023-04-18T08:34:59.114Z,9.38
2023-04-18T08:37:27.889Z,7.78
2023-04-18T08:39:54.735Z,6.85
2023-04-18T08:42:23.012Z,11.10
2023-04-18T08:44:49.944Z,9.75
2023-04-18T08:47:16.725Z,8.93
2023-04-18T08:49:46.835Z,10.45
2023-04-18T08:52:14.747Z,8.00
2023-04-18T08:54:42.883Z,8.40
2023-04-18T08:57:16.774Z,8.77
2023-04-18T08:59:46.337Z,8.85
2023-04-18T09:02:16.344Z,7.90
2023-04-18T09:04:45.432Z,7.40
2023-04-18T09:07:15.391Z,9.15
2023-04-18T09:09:47.850Z,8.48
2023-04-18T09:12:22.778Z,8.75
2023-04-18T09:14:51.862Z,9.10
2023-04-18T09:17:36.192Z,8.80
2023-04-18T09:20:09.442Z,8.18
2023-04-18T09:23:03.967Z,9.02
2023-04-18T09:25:39.830Z,7.45
2023-04-18T09:28:30.755Z,7.75
2023-04-18T09:31:17.848Z,7.97
2023-04-18T09:33:56.917Z,8.15
2023-04-18T09:36:27.950Z,7.10
2023-04-18T09:41:24.401Z,8.05
2023-04-18T09:44:09.248Z,7.97
2023-04-18T09:46:37.166Z,7.88
2023-04-18T09:49:04.036Z,8.38
2023-04-18T09:51:31.919Z,6.88
2023-04-18T09:53:58.638Z,6.70
2023-04-18T09:56:26.442Z,6.95
2023-04-18T09:58:59.162Z,6.75
2023-04-18T10:01:29.563Z,7.55
2023-04-18T10:03:57.607Z,6.95
2023-04-18T10:06:27.433Z,6.22
2023-04-18T10:08:55.278Z,6.90
2023-04-18T10:11:22.183Z,6.60
2023-04-18T10:13:49.860Z,6.65
2023-04-18T10:16:17.166Z,6.03
2023-04-18T10:18:44.089Z,6.25
2023-04-18T10:21:11.465Z,7.20
2023-04-18T10:23:39.920Z,6.93
2023-04-18T10:26:11.086Z,8.18
2023-04-18T10:28:57.749Z,8.40
2023-04-18T10:31:26.518Z,8.25
2023-04-18T10:34:06.648Z,10.10
2023-04-18T10:36:33.669Z,9.20
2023-04-18T10:39:03.282Z,8.07
2023-04-18T10:41:32.101Z,7.10
2023-04-18T10:44:08.766Z,7.35
2023-04-18T10:46:43.108Z,6.90
2023-04-18T10:49:16.274Z,6.43
2023-04-18T10:51:46.814Z,6.75
2023-04-18T10:54:24.761Z,7.03
2023-04-18T10:56:55.971Z,6.30
2023-04-18T10:59:24.307Z,7.60
2023-04-18T11:02:00.317Z,5.88
2023-04-18T11:04:27.291Z,5.18
2023-04-18T11:07:00.440Z,5.25
2023-04-18T11:09:27.302Z,4.80
2023-04-18T11:12:08.983Z,4.97
2023-04-18T11:14:45.022Z,5.03
2023-04-18T11:17:22.409Z,4.55
2023-04-18T11:19:50.218Z,4.18
2023-04-18T11:22:17.878Z,5.25
2023-04-18T11:24:45.165Z,4.47
2023-04-18T11:27:12.851Z,3.95
2023-04-18T11:29:39.710Z,4.97
2023-04-18T11:32:07.876Z,4.40
2023-04-18T11:34:36.007Z,3.85
2023-04-18T11:37:07.670Z,4.38
2023-04-18T11:39:36.449Z,4.93
2023-04-18T11:42:03.278Z,5.45
2023-04-18T11:44:30.204Z,6.05
2023-04-18T11:46:57.116Z,5.50
2023-04-18T11:49:32.209Z,5.95
2023-04-18T11:51:59.785Z,6.82
2023-04-18T11:54:56.605Z,5.45
2023-04-18T11:57:25.666Z,9.75
2023-04-18T11:59:59.551Z,9.25
2023-04-18T12:02:50.499Z,8.90
2023-04-18T12:05:29.256Z,10.88
2023-04-18T12:07:57.246Z,8.52
2023-04-18T12:10:27.291Z,7.80
2023-04-18T12:12:55.336Z,7.47
2023-04-18T12:15:28.315Z,6.22
2023-04-18T12:18:03.957Z,9.35
2023-04-18T12:20:34.983Z,6.38
2023-04-18T12:25:29.848Z,6.97
2023-04-18T12:28:01.415Z,5.15
2023-04-18T12:30:32.025Z,6.40
2023-04-18T12:33:01.387Z,5.97
2023-04-18T12:35:28.969Z,5.30
2023-04-18T12:37:57.215Z,5.63
2023-04-18T12:40:26.337Z,5.25
2023-04-18T12:42:54.205Z,5.18
2023-04-18T12:45:22.208Z,4.70
2023-04-18T12:47:50.544Z,5.20
2023-04-18T12:50:23.150Z,4.38
2023-04-18T12:52:52.292Z,4.50
2023-04-18T12:55:19.258Z,4.40
2023-04-18T12:57:46.313Z,4.15
2023-04-18T13:00:13.815Z,3.67
2023-04-18T13:02:43.699Z,4.07
2023-04-18T13:05:12.813Z,3.50
2023-04-18T13:07:43.183Z,4.57
2023-04-18T13:10:12.253Z,3.22
2023-04-18T13:12:40.235Z,3.53
2023-04-18T13:15:08.646Z,3.85
2023-04-18T13:17:38.721Z,3.50
2023-04-18T13:20:07.066Z,3.83
2023-04-18T13:22:34.144Z,3.10
2023-04-18T13:25:00.879Z,4.45
2023-04-18T13:27:27.689Z,4.85
2023-04-18T13:29:55.253Z,4.22
2023-04-18T13:32:22.229Z,3.67
2023-04-18T13:34:49.546Z,4.88
2023-04-18T13:37:16.517Z,5.20
2023-04-18T13:39:43.414Z,3.92
2023-04-18T13:42:10.237Z,4.18
2023-04-18T13:44:37.874Z,4.43
2023-04-18T13:47:06.095Z,3.67
2023-04-18T13:49:33.720Z,5.00
2023-04-18T13:52:00.729Z,4.07
2023-04-18T13:54:29.116Z,3.83
2023-04-18T13:56:57.613Z,3.63
2023-04-18T13:59:25.380Z,2.97
2023-04-18T14:01:52.772Z,4.53
2023-04-18T14:04:23.538Z,3.92
2023-04-18T14:09:18.072Z,3.78
2023-04-18T14:11:45.566Z,3.50
2023-04-18T14:14:12.394Z,3.10
2023-04-18T14:16:39.251Z,4.10
2023-04-18T14:19:06.607Z,3.63
2023-04-18T14:21:33.437Z,3.28
2023-04-18T14:24:00.513Z,3.30
2023-04-18T14:26:27.471Z,3.10
2023-04-18T14:28:54.209Z,3.30
2023-04-18T14:31:21.199Z,3.08
2023-04-18T14:33:47.995Z,3.08
2023-04-18T14:36:17.622Z,2.78
2023-04-18T14:38:48.412Z,2.75
2023-04-18T14:41:15.445Z,3.08
2023-04-18T14:43:42.395Z,3.63
2023-04-18T14:46:13.899Z,3.28
2023-04-18T14:48:40.991Z,3.60
2023-04-18T14:51:08.042Z,4.00
2023-04-18T14:53:35.037Z,4.03
2023-04-18T14:56:01.805Z,4.20
2023-04-18T14:58:28.645Z,3.80
2023-04-18T15:00:55.773Z,3.22
2023-04-18T15:03:22.826Z,3.20
2023-04-18T15:05:49.897Z,3.67
2023-04-18T15:08:16.741Z,3.47
2023-04-18T15:10:44.638Z,3.22
2023-04-18T15:13:12.176Z,2.78
2023-04-18T15:15:39.998Z,2.72
2023-04-18T15:18:08.369Z,3.63
2023-04-18T15:20:37.197Z,2.88
2023-04-18T15:23:04.158Z,2.67
2023-04-18T15:25:31.138Z,3.30
2023-04-18T15:28:14.932Z,3.42
2023-04-18T15:30:41.944Z,3.70
2023-04-18T15:33:08.908Z,2.72
2023-04-18T15:35:36.133Z,2.92
2023-04-18T15:38:03.046Z,2.80
2023-04-18T15:40:30.400Z,2.80
2023-04-18T15:42:59.551Z,2.97
2023-04-18T15:45:26.418Z,2.70
2023-04-18T15:47:53.474Z,3.35
2023-04-18T15:50:20.622Z,3.03
2023-04-18T15:52:47.643Z,2.97
2023-04-18T15:55:14.624Z,3.47
2023-04-18T15:57:41.996Z,2.90
2023-04-18T16:00:17.506Z,2.50
2023-04-18T16:02:45.260Z,2.35
2023-04-18T16:05:13.242Z,2.30
2023-04-18T16:07:41.392Z,2.65
2023-04-18T16:10:10.349Z,2.22
2023-04-18T16:12:38.433Z,2.60
2023-04-18T16:15:06.844Z,2.92
2023-04-18T16:17:33.861Z,2.92
2023-04-18T16:20:00.764Z,2.50
2023-04-18T16:22:28.455Z,2.35
2023-04-18T16:24:55.369Z,2.00
2023-04-18T16:27:22.279Z,2.33
2023-04-18T16:29:49.073Z,2.97
2023-04-18T16:32:15.965Z,2.45
2023-04-18T16:34:42.812Z,2.47
2023-04-18T16:37:09.699Z,3.10
2023-04-18T16:39:36.500Z,2.13
2023-04-18T16:42:03.976Z,2.08
2023-04-18T16:44:30.850Z,2.15
2023-04-18T16:46:57.895Z,2.55
2023-04-18T16:49:25.326Z,2.35
2023-04-18T16:51:52.274Z,1.88
2023-04-18T16:54:19.143Z,2.08
2023-04-18T16:56:46.029Z,2.25
2023-04-18T16:59:12.933Z,2.90
2023-04-18T17:01:39.769Z,2.08
2023-04-18T17:04:06.743Z,2.25
2023-04-18T17:06:34.116Z,1.85
2023-04-18T17:09:00.948Z,2.17
2023-04-18T17:11:27.990Z,2.50
2023-04-18T17:13:54.837Z,2.00
2023-04-18T17:16:21.881Z,2.92
2023-04-18T17:18:48.746Z,2.90
2023-04-18T17:21:15.623Z,2.63
2023-04-18T17:23:42.669Z,2.40
2023-04-18T17:26:10.117Z,2.30
2023-04-18T17:28:37.120Z,3.20
2023-04-18T17:31:04.477Z,3.10
2023-04-18T17:33:31.687Z,3.60
2023-04-18T17:35:59.002Z,4.30
2023-04-18T17:38:25.829Z,3.45
2023-04-18T17:41:02.692Z,3.72
2023-04-18T17:43:29.621Z,3.72
2023-04-18T17:45:59.436Z,3.60
2023-04-18T17:48:26.400Z,3.22
2023-04-18T17:50:56.221Z,4.75
2023-04-18T17:53:23.343Z,3.65
2023-04-18T17:55:52.305Z,4.07
2023-04-18T17:58:19.939Z,4.57
2023-04-18T18:00:46.832Z,4.72
2023-04-18T18:03:15.137Z,5.00
2023-04-18T18:05:44.729Z,4.60
2023-04-18T18:08:11.642Z,4.35
2023-04-18T18:10:39.261Z,4.38
2023-04-18T18:13:06.142Z,3.72
2023-04-18T18:15:33.268Z,4.03
2023-04-18T18:18:00.309Z,5.78
2023-04-18T18:20:27.525Z,5.07
2023-04-18T18:22:55.127Z,4.22
2023-04-18T18:25:21.944Z,4.68
2023-04-18T18:27:49.502Z,5.30
2023-04-18T18:30:17.343Z,4.53
2023-04-18T18:32:44.340Z,5.70
2023-04-18T18:35:11.447Z,5.68
2023-04-18T18:37:38.361Z,5.72
2023-04-18T18:40:07.449Z,4.45
2023-04-18T18:42:34.423Z,4.43
2023-04-18T18:45:01.766Z,4.68
2023-04-18T18:47:30.545Z,5.60
2023-04-18T18:49:57.424Z,3.95
2023-04-18T18:52:24.959Z,5.22
2023-04-18T18:54:51.826Z,4.93
2023-04-18T18:57:18.603Z,4.47
2023-04-18T18:59:45.434Z,4.70
2023-04-18T19:02:12.371Z,4.03
2023-04-18T19:04:39.326Z,5.45
2023-04-18T19:07:06.284Z,3.78
2023-04-18T19:09:33.450Z,4.20
2023-04-18T19:12:01.117Z,4.65
2023-04-18T19:14:27.939Z,6.90
2023-04-18T19:16:55.957Z,6.90
2023-04-18T19:19:22.723Z,3.58
2023-04-18T19:21:50.198Z,6.15
2023-04-18T19:24:17.733Z,3.92
2023-04-18T19:26:44.579Z,5.97
2023-04-18T19:29:14.469Z,5.38
2023-04-18T19:31:43.681Z,7.97
2023-04-18T19:34:10.933Z,8.02
2023-04-18T19:36:38.273Z,3.88
2023-04-18T19:39:05.164Z,6.05
2023-04-18T19:41:32.024Z,4.47
2023-04-18T19:43:59.004Z,3.55
2023-04-18T19:46:26.288Z,7.20
2023-04-18T19:48:53.123Z,6.72
2023-04-18T19:51:20.026Z,7.72
2023-04-18T19:53:46.860Z,6.90
2023-04-18T19:56:15.035Z,4.32
2023-04-18T19:58:46.757Z,4.13
2023-04-18T20:01:14.573Z,5.28
2023-04-18T20:03:41.728Z,6.53
2023-04-18T20:06:08.938Z,8.60
2023-04-18T20:08:38.236Z,7.10
2023-04-18T20:11:09.580Z,8.15
2023-04-18T20:13:37.558Z,8.40
2023-04-18T20:16:05.694Z,7.68
2023-04-18T20:18:33.992Z,7.82
2023-04-18T20:21:00.826Z,6.25
2023-04-18T20:23:28.260Z,6.60
2023-04-18T20:25:55.083Z,7.55
2023-04-18T20:28:22.414Z,5.68
2023-04-18T20:30:49.453Z,8.23
2023-04-18T20:33:16.583Z,7.68
2023-04-18T20:35:44.621Z,4.35
2023-04-18T20:38:12.403Z,6.88
2023-04-18T20:40:39.809Z,5.70
2023-04-18T20:43:10.134Z,5.38
2023-04-18T20:45:42.863Z,6.20
2023-04-18T20:48:10.381Z,7.45
2023-04-18T20:50:40.781Z,4.93
2023-04-18T20:53:08.398Z,4.35
2023-04-18T20:55:35.310Z,3.67
2023-04-18T20:58:02.122Z,5.05
2023-04-18T21:00:29.518Z,8.05
2023-04-18T21:02:56.594Z,4.00
2023-04-18T21:05:23.611Z,8.43
2023-04-18T21:07:50.654Z,7.28
2023-04-18T21:10:17.478Z,7.82
2023-04-18T21:12:44.277Z,5.13
2023-04-18T21:15:11.632Z,4.25
2023-04-18T21:17:38.606Z,6.95
2023-04-18T21:20:06.430Z,6.50
2023-04-18T21:22:33.235Z,3.60
2023-04-18T21:25:00.120Z,3.78
2023-04-18T21:27:27.010Z,6.53
2023-04-18T21:29:53.978Z,5.20
2023-04-18T21:32:21.162Z,3.45
2023-04-18T21:34:47.982Z,6.43
2023-04-18T21:37:14.829Z,5.93
2023-04-18T21:39:42.617Z,6.45
2023-04-18T21:42:11.248Z,6.18
2023-04-18T21:44:38.116Z,4.15
2023-04-18T21:47:04.931Z,5.40
2023-04-18T21:49:31.866Z,4.53
2023-04-18T21:51:58.752Z,7.07
2023-04-18T21:54:25.552Z,4.63
2023-04-18T21:56:52.353Z,4.78
2023-04-18T21:59:19.108Z,5.95
2023-04-18T22:01:45.950Z,5.18
2023-04-18T22:04:14.729Z,6.10
2023-04-18T22:06:41.998Z,4.47
2023-04-18T22:09:09.037Z,4.88
2023-04-18T22:11:35.807Z,3.92
2023-04-18T22:14:02.510Z,4.60
2023-04-18T22:16:29.283Z,4.72
2023-04-18T22:18:56.268Z,5.28
2023-04-18T22:21:23.104Z,5.68
2023-04-18T22:23:49.961Z,4.18
2023-04-18T22:26:16.861Z,5.15
2023-04-18T22:28:43.651Z,3.28
2023-04-18T22:31:10.479Z,3.08
2023-04-18T22:33:37.338Z,5.25
2023-04-18T22:36:04.447Z,7.10
2023-04-18T22:38:31.186Z,5.80
2023-04-18T22:40:59.435Z,4.95
2023-04-18T22:43:26.975Z,4.38
2023-04-18T22:45:53.845Z,5.07
2023-04-18T22:48:20.765Z,4.45
2023-04-18T22:50:47.670Z,4.97
2023-04-18T22:53:15.224Z,7.30
2023-04-18T22:55:43.685Z,5.13
2023-04-18T22:58:10.857Z,5.38
2023-04-18T23:00:37.720Z,5.15
2023-04-18T23:03:04.795Z,5.55
2023-04-18T23:05:31.864Z,5.05
2023-04-18T23:08:00.387Z,6.10
2023-04-18T23:10:27.797Z,3.83
2023-04-18T23:12:54.589Z,5.28
2023-04-18T23:15:22.883Z,5.63
2023-04-18T23:17:54.533Z,7.43
2023-04-18T23:20:21.883Z,7.40
2023-04-18T23:22:51.577Z,4.43
2023-04-18T23:25:19.800Z,7.05
2023-04-18T23:27:47.079Z,5.35
2023-04-18T23:30:14.200Z,6.22
2023-04-18T23:32:41.010Z,5.32
2023-04-18T23:35:08.239Z,6.03
2023-04-18T23:37:35.039Z,5.70
2023-04-18T23:40:02.613Z,6.25
2023-04-18T23:42:29.456Z,5.63
2023-04-18T23:44:57.802Z,6.53
2023-04-18T23:47:24.554Z,5.65
2023-04-18T23:49:51.414Z,5.75
2023-04-18T23:52:18.213Z,6.95
2023-04-18T23:54:45.789Z,5.95
2023-04-18T23:57:13.882Z,7.00
2023-04-18T23:59:40.693Z,4.95
